Time;durP1;ratioP1;P1;durP2;ratioP2;P2;SDS_P1;SDS_P2;PMS_P1;PMS_P2;Temp;Humidity;BMP_temperature;BMP_pressure;BME280_temperature;BME280_humidity;BME280_pressure;Samples;Min_cycle;Max_cycle;Signal;HPM_P1;HPM_P2
2022/07/22 00:01:19;;;;;;;2.70;2.50;;;21.70;78.70;;;24.40;55.94;101730.25;5099226;28;20209;-64
2022/07/22 00:03:47;;;;;;;2.33;2.23;;;21.60;78.10;;;24.34;56.01;101731.25;5093389;28;20184;-64
2022/07/22 00:06:14;;;;;;;2.10;1.90;;;21.60;77.80;;;24.29;56.34;101727.63;5092986;28;20194;-64
2022/07/22 00:08:43;;;;;;;3.63;2.23;;;21.60;77.80;;;24.27;56.19;101730.53;5093458;28;20195;-64
2022/07/22 00:11:10;;;;;;;2.30;2.10;;;21.50;78.00;;;24.27;55.89;101732.44;5092681;28;20216;-64
2022/07/22 00:13:38;;;;;;;2.10;1.90;;;21.50;77.60;;;24.21;56.01;101731.50;5093306;28;20199;-64
2022/07/22 00:16:06;;;;;;;3.30;1.60;;;21.50;77.40;;;24.16;56.06;101729.53;5093492;28;20189;-63
2022/07/22 00:18:34;;;;;;;2.00;1.80;;;21.40;77.40;;;24.12;55.63;101728.41;5093326;28;20248;-63
2022/07/22 00:21:01;;;;;;;3.53;2.10;;;21.40;77.60;;;24.13;55.68;101730.00;5092845;28;20184;-63
2022/07/22 00:23:28;;;;;;;3.50;2.03;;;21.40;77.60;;;24.08;55.30;101737.97;5093425;28;20195;-63
2022/07/22 00:25:57;;;;;;;2.23;2.03;;;21.30;76.80;;;24.02;55.33;101738.91;5093372;28;20185;-63
2022/07/22 00:28:25;;;;;;;2.20;2.00;;;21.30;77.00;;;23.98;55.24;101739.63;5098307;28;20215;-63
2022/07/22 00:30:52;;;;;;;2.40;2.13;;;21.30;77.00;;;23.95;55.37;101754.38;5112920;28;20208;-63
2022/07/22 00:33:20;;;;;;;2.47;2.27;;;21.20;76.90;;;23.96;56.07;101750.63;5112649;28;20285;-63
2022/07/22 00:35:48;;;;;;;4.17;2.53;;;21.20;77.30;;;23.98;55.73;101748.53;5113464;28;20242;-63
2022/07/22 00:38:15;;;;;;;3.27;2.60;;;21.20;77.00;;;24.00;55.24;101750.97;5113497;28;20533;-63
2022/07/22 00:40:43;;;;;;;3.30;2.43;;;21.20;76.80;;;24.01;55.01;101755.31;5113426;28;20675;-62
2022/07/22 00:43:12;;;;;;;3.30;2.80;;;21.20;76.80;;;24.00;54.76;101749.09;5099232;28;20802;-63
2022/07/22 00:45:40;;;;;;;4.77;2.90;;;21.20;76.70;;;23.97;54.79;101752.25;5111389;28;20194;-63
2022/07/22 00:48:07;;;;;;;2.63;2.40;;;21.20;76.20;;;23.97;55.17;101757.66;5117832;28;20263;-64
2022/07/22 00:50:36;;;;;;;5.63;3.40;;;21.20;76.80;;;24.00;55.00;101764.44;5119983;28;20298;-63
2022/07/22 00:53:03;;;;;;;4.07;2.93;;;21.20;76.30;;;23.98;54.96;101761.97;5116937;28;20223;-63
2022/07/22 00:55:33;;;;;;;6.13;3.20;;;21.20;76.40;;;23.98;54.91;101761.16;5116670;28;20195;-64
2022/07/22 00:58:01;;;;;;;5.77;3.70;;;21.20;76.10;;;23.96;54.55;101765.97;5076227;28;20568;-62
2022/07/22 01:00:31;;;;;;;6.17;3.23;;;21.20;75.80;;;23.90;54.18;101767.72;5075825;28;20189;-64
2022/07/22 01:02:58;;;;;;;4.77;2.93;;;21.10;75.50;;;23.83;54.60;101772.41;5076150;28;20569;-62
2022/07/22 01:05:25;;;;;;;4.67;3.23;;;21.10;75.70;;;23.83;54.77;101766.22;5076300;28;20193;-62
2022/07/22 01:07:53;;;;;;;8.10;3.40;;;21.10;76.30;;;23.82;54.29;101770.75;5076242;28;20668;-62
2022/07/22 01:10:21;;;;;;;4.77;2.80;;;21.10;75.20;;;23.82;54.43;101776.13;5090734;28;20204;-63
2022/07/22 01:12:48;;;;;;;4.63;2.67;;;21.10;75.20;;;23.82;54.48;101776.13;5116422;28;20216;-62
2022/07/22 01:15:15;;;;;;;4.40;2.50;;;21.00;74.90;;;23.81;53.80;101777.22;5116374;28;20184;-62
2022/07/22 01:17:44;;;;;;;7.10;3.10;;;21.00;74.20;;;23.79;53.87;101776.63;5116680;28;20640;-63
2022/07/22 01:20:13;;;;;;;3.97;3.10;;;21.00;74.20;;;23.77;53.45;101776.03;5116460;28;20180;-62
2022/07/22 01:22:40;;;;;;;5.33;3.07;;;21.00;74.20;;;23.76;54.18;101782.47;5116026;28;20216;-62
2022/07/22 01:25:08;;;;;;;5.87;3.50;;;21.00;75.60;;;23.77;54.07;101778.72;5116326;28;20188;-63
2022/07/22 01:27:36;;;;;;;5.47;3.50;;;21.00;75.10;;;23.78;54.22;101785.75;5114505;28;20198;-62
2022/07/22 01:30:05;;;;;;;5.87;3.80;;;21.00;75.10;;;23.79;53.91;101787.41;5116388;28;20257;-62
2022/07/22 01:32:32;;;;;;;6.67;3.90;;;21.00;75.10;;;23.79;54.19;101781.19;5115952;28;20222;-62
2022/07/22 01:35:00;;;;;;;4.67;3.57;;;21.00;75.10;;;23.80;54.19;101783.63;5116100;28;20188;-62
2022/07/22 01:37:28;;;;;;;5.47;3.80;;;21.00;75.10;;;23.78;53.92;101784.91;5115085;28;20652;-60
2022/07/22 01:39:56;;;;;;;5.00;4.30;;;21.00;74.90;;;23.76;54.27;101795.09;5115307;27;20207;-62
2022/07/22 01:42:23;;;;;;;5.60;3.50;;;21.00;75.10;;;23.73;54.29;101788.31;5113237;28;20223;-62
2022/07/22 01:44:51;;;;;;;5.17;3.83;;;20.90;75.00;;;23.71;54.16;101790.44;5094640;28;20211;-62
2022/07/22 01:47:19;;;;;;;5.30;3.40;;;20.90;75.10;;;23.69;54.20;101795.22;5095291;28;20196;-62
2022/07/22 01:49:46;;;;;;;6.93;3.60;;;20.90;75.20;;;23.62;54.00;101797.22;5095396;28;20192;-62
2022/07/22 01:52:14;;;;;;;5.30;3.00;;;20.80;75.10;;;23.58;54.28;101800.63;5094795;28;20213;-62
2022/07/22 01:54:42;;;;;;;4.30;3.17;;;20.80;75.30;;;23.53;54.28;101798.63;5095507;28;20197;-61
2022/07/22 01:57:10;;;;;;;6.20;3.93;;;20.80;75.40;;;23.50;54.36;101799.09;5095350;28;20597;-62
2022/07/22 01:59:37;;;;;;;4.50;3.00;;;20.70;75.40;;;23.45;54.53;101796.28;5103279;28;20203;-62
2022/07/22 02:02:04;;;;;;;8.23;3.83;;;20.70;75.60;;;23.44;54.49;101794.63;5115217;27;20220;-63
2022/07/22 02:04:32;;;;;;;5.60;3.10;;;20.70;75.60;;;23.41;54.32;101792.44;5115652;28;20188;-61
2022/07/22 02:06:59;;;;;;;7.37;3.23;;;20.60;75.50;;;23.37;54.82;101796.63;5115607;28;20191;-61
2022/07/22 02:09:26;;;;;;;4.60;3.10;;;20.60;75.80;;;23.36;54.85;101798.50;5115742;28;20184;-61
2022/07/22 02:11:55;;;;;;;5.57;3.10;;;20.60;76.00;;;23.38;54.79;101795.56;5115278;28;20223;-61
2022/07/22 02:14:22;;;;;;;3.73;3.20;;;20.60;75.80;;;23.36;54.92;101795.00;5115601;28;20188;-60
2022/07/22 02:16:51;;;;;;;4.93;3.77;;;20.60;75.90;;;23.37;54.79;101788.56;5113979;28;20192;-61
2022/07/22 02:19:18;;;;;;;6.13;3.20;;;20.60;75.90;;;23.39;54.89;101794.53;5115755;28;20184;-61
2022/07/22 02:21:45;;;;;;;5.97;3.33;;;20.60;75.90;;;23.41;54.61;101800.50;5114863;28;20212;-61
2022/07/22 02:24:13;;;;;;;4.77;2.83;;;20.60;75.90;;;23.42;54.89;101796.75;5115304;28;20188;-60
2022/07/22 02:26:40;;;;;;;4.90;3.63;;;20.60;75.80;;;23.44;54.66;101789.25;5115239;28;20536;-61
2022/07/22 02:29:09;;;;;;;6.20;3.67;;;20.60;75.70;;;23.43;54.44;101795.69;5115189;28;20195;-61
2022/07/22 02:31:36;;;;;;;5.87;3.43;;;20.50;75.40;;;23.41;54.42;101797.81;5114769;28;20215;-61
2022/07/22 02:34:04;;;;;;;4.17;3.50;;;20.60;75.50;;;23.38;54.63;101791.03;5113428;28;20195;-63
2022/07/22 02:36:32;;;;;;;3.57;3.27;;;20.60;75.50;;;23.35;54.47;101794.16;5115137;28;20607;-60
2022/07/22 02:39:01;;;;;;;5.53;3.23;;;20.60;75.50;;;23.33;54.71;101793.56;5114950;28;20191;-62
2022/07/22 02:41:29;;;;;;;3.47;3.10;;;20.50;75.60;;;23.32;54.68;101797.28;5114869;28;20231;-62
2022/07/22 02:43:56;;;;;;;8.50;3.73;;;20.50;75.70;;;23.31;54.61;101800.22;5115032;28;20184;-62
2022/07/22 02:46:28;;;;;;;4.63;3.47;;;20.50;75.60;;;23.28;54.51;101804.19;5115344;28;20191;-63
2022/07/22 02:48:56;;;;;;;5.77;4.03;;;20.50;75.70;;;23.25;54.61;101806.53;5108025;28;20181;-62
2022/07/22 02:51:24;;;;;;;4.90;3.37;;;20.40;75.50;;;23.21;54.73;101802.66;5093957;28;20270;-61
2022/07/22 02:53:52;;;;;;;6.80;3.87;;;20.40;75.60;;;23.16;54.73;101792.59;5094311;28;20242;-62
2022/07/22 02:56:19;;;;;;;3.77;3.20;;;20.40;75.50;;;23.14;54.78;101799.25;5094382;28;20193;-62
2022/07/22 02:58:47;;;;;;;5.73;3.37;;;20.40;75.70;;;23.11;54.81;101805.06;5094037;28;20227;-61
2022/07/22 03:01:14;;;;;;;3.83;3.07;;;20.30;75.80;;;23.10;54.58;101808.84;5093591;28;20204;-62
2022/07/22 03:03:43;;;;;;;5.03;3.00;;;20.30;75.70;;;23.08;54.82;101800.19;5093965;28;20271;-62
2022/07/22 03:06:11;;;;;;;6.73;3.30;;;20.30;75.70;;;23.05;54.80;101806.00;5095531;28;20184;-63
2022/07/22 03:08:38;;;;;;;3.60;3.23;;;20.30;75.80;;;23.06;54.71;101807.66;5094763;28;20251;-60
2022/07/22 03:11:06;;;;;;;7.23;3.17;;;20.30;75.80;;;23.07;54.67;101814.66;5093234;28;20562;-61
2022/07/22 03:13:33;;;;;;;3.90;2.63;;;20.20;75.60;;;23.05;54.77;101819.44;5094390;28;20189;-62
2022/07/22 03:16:01;;;;;;;5.00;3.83;;;20.30;75.80;;;23.02;54.72;101815.34;5094284;28;20208;-62
2022/07/22 03:18:28;;;;;;;5.13;3.23;;;20.20;75.80;;;23.00;54.83;101819.31;5094192;28;20193;-60
2022/07/22 03:20:57;;;;;;;5.67;2.97;;;20.20;75.80;;;22.99;54.71;101817.69;5093458;28;20194;-60
2022/07/22 03:23:24;;;;;;;3.67;3.10;;;20.20;75.80;;;22.98;54.83;101821.41;5093847;28;20184;-61
2022/07/22 03:25:52;;;;;;;9.40;3.30;;;20.20;75.90;;;22.98;54.71;101827.63;5094177;28;20555;-61
2022/07/22 03:28:19;;;;;;;6.20;2.43;;;20.10;75.80;;;22.97;54.62;101825.13;5093960;28;20204;-61
2022/07/22 03:30:47;;;;;;;5.40;3.40;;;20.20;75.90;;;22.95;54.91;101821.88;5093261;28;20208;-60
2022/07/22 03:33:14;;;;;;;5.10;2.83;;;20.20;76.00;;;22.96;54.83;101820.81;5094066;28;20192;-61
2022/07/22 03:35:42;;;;;;;5.20;2.40;;;20.20;76.10;;;22.95;54.88;101827.22;5094063;28;20218;-61
2022/07/22 03:38:11;;;;;;;6.23;2.60;;;20.10;76.00;;;22.93;54.83;101830.16;5101540;28;20648;-61
2022/07/22 03:40:38;;;;;;;4.03;2.40;;;20.10;75.80;;;22.90;54.82;101826.06;5113620;28;20195;-60
2022/07/22 03:43:05;;;;;;;3.70;2.10;;;20.10;76.60;;;22.88;54.94;101828.16;5113988;28;20654;-60
2022/07/22 03:45:33;;;;;;;5.03;2.07;;;20.10;75.80;;;22.84;54.95;101832.34;5114125;28;20188;-60
2022/07/22 03:48:00;;;;;;;6.57;2.03;;;20.00;75.60;;;22.82;55.13;101825.59;5113846;28;20648;-60
2022/07/22 03:50:28;;;;;;;3.67;2.13;;;20.00;75.70;;;22.81;54.96;101830.13;5113105;28;20195;-60
2022/07/22 03:52:55;;;;;;;5.27;2.33;;;20.00;75.80;;;22.85;55.25;101834.00;5113254;28;20634;-60
2022/07/22 03:55:24;;;;;;;3.63;2.50;;;20.00;76.00;;;22.89;54.92;101835.16;5097054;28;20199;-60
2022/07/22 03:57:51;;;;;;;5.63;2.80;;;20.00;75.90;;;22.90;54.84;101838.66;5093803;28;20184;-59
2022/07/22 04:00:18;;;;;;;6.00;2.67;;;20.10;76.00;;;22.88;55.05;101844.28;5093522;28;20226;-60
2022/07/22 04:02:46;;;;;;;5.50;2.80;;;20.10;76.50;;;22.86;55.18;101835.63;5092707;28;20208;-59
2022/07/22 04:05:13;;;;;;;7.03;3.57;;;20.10;76.50;;;22.85;55.28;101839.34;5093377;28;20188;-59
2022/07/22 04:07:40;;;;;;;11.03;4.33;;;20.00;76.30;;;22.84;55.29;101843.06;5093340;28;20695;-60
2022/07/22 04:10:09;;;;;;;8.43;4.40;;;20.00;76.50;;;22.82;55.28;101836.31;5094206;28;20208;-59
2022/07/22 04:12:40;;;;;;;8.40;4.73;;;20.00;76.40;;;22.77;55.06;101831.59;5092646;28;20216;-60
2022/07/22 04:15:09;;;;;;;6.10;3.73;;;20.00;76.30;;;22.78;55.17;101835.94;5093355;28;20192;-58
2022/07/22 04:17:37;;;;;;;4.90;3.10;;;20.00;76.30;;;22.76;55.08;101830.00;5093359;28;20184;-59
2022/07/22 04:20:06;;;;;;;7.10;3.73;;;20.00;76.20;;;22.76;54.97;101840.72;5093245;28;20272;-59
2022/07/22 04:22:33;;;;;;;5.70;3.40;;;20.00;76.30;;;22.81;55.34;101832.81;5095224;28;20208;-59
2022/07/22 04:25:01;;;;;;;8.67;3.70;;;20.00;76.40;;;22.85;55.13;101839.34;5098132;28;20263;-61
2022/07/22 04:27:28;;;;;;;9.57;2.87;;;20.00;76.20;;;22.88;55.06;101838.91;5098325;28;20188;-61
2022/07/22 04:29:57;;;;;;;5.53;3.27;;;20.00;76.30;;;22.95;54.99;101844.19;5097014;28;20273;-61
2022/07/22 04:32:24;;;;;;;6.80;3.40;;;20.10;76.40;;;23.01;54.69;101847.81;5096686;28;20216;-61
2022/07/22 04:34:51;;;;;;;6.00;2.80;;;20.10;75.80;;;23.06;54.46;101847.97;5097059;28;20199;-60
2022/07/22 04:37:19;;;;;;;8.77;3.47;;;20.20;75.60;;;23.10;54.18;101844.59;5097017;28;20576;-61
2022/07/22 04:39:46;;;;;;;9.47;3.20;;;20.20;75.10;;;23.12;53.90;101852.41;5096143;28;20672;-61
2022/07/22 04:42:14;;;;;;;8.57;3.10;;;20.20;74.80;;;23.09;53.72;101853.69;5096310;28;20234;-61
2022/07/22 04:44:41;;;;;;;8.90;3.17;;;20.20;74.30;;;23.07;53.71;101853.09;5097949;28;20204;-59
2022/07/22 04:47:10;;;;;;;8.63;3.43;;;20.20;74.20;;;23.07;53.87;101852.25;5096920;28;20552;-61
2022/07/22 04:49:37;;;;;;;6.43;3.40;;;20.20;74.60;;;23.11;53.92;101853.44;5096589;28;20263;-60
2022/07/22 04:52:05;;;;;;;8.07;3.50;;;20.20;74.50;;;23.12;53.69;101849.72;5095782;28;20213;-60
2022/07/22 04:54:36;;;;;;;7.43;3.13;;;20.30;74.20;;;23.12;53.60;101849.72;5096153;28;20193;-59
2022/07/22 04:57:03;;;;;;;8.30;3.23;;;20.30;74.90;;;23.09;53.63;101850.16;5096537;28;20208;-59
2022/07/22 04:59:30;;;;;;;8.73;3.67;;;20.30;74.00;;;23.07;53.48;101852.25;5097544;28;20653;-61
2022/07/22 05:01:58;;;;;;;6.60;3.37;;;20.20;74.00;;;23.06;53.57;101856.03;5094600;28;20212;-61
2022/07/22 05:04:27;;;;;;;4.93;3.00;;;20.20;74.00;;;23.03;53.55;101851.09;5097195;28;20554;-59
2022/07/22 05:06:54;;;;;;;5.83;3.30;;;20.20;74.20;;;23.04;53.49;101852.72;5095913;28;20246;-61
2022/07/22 05:09:22;;;;;;;6.23;2.90;;;20.20;74.30;;;23.02;53.92;101860.19;5096222;28;20337;-60
2022/07/22 05:11:49;;;;;;;8.90;2.80;;;20.20;74.30;;;23.02;53.79;101854.81;5095551;28;20220;-61
2022/07/22 05:14:16;;;;;;;6.37;2.87;;;20.20;74.30;;;23.02;53.68;101857.50;5095803;28;20563;-61
2022/07/22 05:16:44;;;;;;;5.60;3.23;;;20.20;74.50;;;23.04;53.88;101858.09;5097440;28;20645;-61
2022/07/22 05:19:11;;;;;;;8.03;3.80;;;20.20;74.60;;;23.05;53.49;101854.38;5095380;28;20226;-60
2022/07/22 05:21:40;;;;;;;8.37;3.97;;;20.20;74.60;;;23.07;53.68;101852.25;5095483;28;20228;-60
2022/07/22 05:24:08;;;;;;;5.80;3.37;;;20.20;74.60;;;23.06;53.68;101861.38;5114915;28;20202;-60
2022/07/22 05:26:35;;;;;;;5.37;3.20;;;20.20;74.50;;;23.02;53.70;101865.56;5115727;28;20192;-62
2022/07/22 05:29:03;;;;;;;9.23;3.67;;;20.20;75.10;;;23.00;53.70;101856.91;5115482;28;20195;-61
2022/07/22 05:31:30;;;;;;;4.33;3.53;;;20.20;74.60;;;23.01;54.06;101863.94;5115216;28;20611;-60
2022/07/22 05:33:59;;;;;;;7.90;2.80;;;20.20;75.60;;;23.05;53.91;101860.56;5112642;28;20257;-60
2022/07/22 05:36:27;;;;;;;6.73;2.53;;;20.20;74.70;;;23.07;53.71;101860.31;5115717;27;20649;-62
2022/07/22 05:38:56;;;;;;;6.70;2.40;;;20.20;74.50;;;23.05;53.71;101865.13;5115882;28;20548;-61
2022/07/22 05:41:24;;;;;;;6.73;3.40;;;20.20;74.30;;;23.00;53.63;101867.66;5115548;28;20287;-62
2022/07/22 05:43:51;;;;;;;4.27;2.87;;;20.20;74.20;;;23.02;53.72;101865.56;5115737;28;20636;-61
2022/07/22 05:46:18;;;;;;;4.53;2.77;;;20.20;74.30;;;23.05;53.67;101867.81;5115404;27;20257;-62
2022/07/22 05:48:46;;;;;;;4.70;2.70;;;20.20;74.00;;;23.09;53.17;101866.28;5116066;28;20188;-62
2022/07/22 05:51:14;;;;;;;5.70;2.57;;;20.20;73.90;;;23.12;53.07;101863.16;5098325;27;20208;-61
2022/07/22 05:53:43;;;;;;;5.60;2.73;;;20.20;73.20;;;23.13;53.05;101867.47;5095231;28;20215;-61
2022/07/22 05:56:12;;;;;;;4.13;2.23;;;20.30;73.30;;;23.18;52.92;101867.59;5095539;28;20189;-61
2022/07/22 05:58:41;;;;;;;8.07;3.17;;;20.30;73.40;;;23.21;52.53;101872.50;5094836;28;20672;-61
2022/07/22 06:01:10;;;;;;;4.37;2.37;;;20.30;72.60;;;23.20;52.07;101868.19;5094614;28;20216;-60
2022/07/22 06:03:38;;;;;;;5.53;2.80;;;20.30;71.90;;;23.21;52.18;101867.13;5094721;28;20559;-62
2022/07/22 06:06:08;;;;;;;8.70;2.87;;;20.30;72.10;;;23.25;52.22;101873.72;5096279;28;20188;-61
2022/07/22 06:08:36;;;;;;;9.67;2.90;;;20.30;71.90;;;23.31;52.00;101876.28;5094529;28;20268;-62
2022/07/22 06:11:03;;;;;;;5.83;2.57;;;20.40;71.90;;;23.38;51.85;101870.84;5094609;28;20530;-61
2022/07/22 06:13:33;;;;;;;4.87;2.47;;;20.40;71.60;;;23.44;51.44;101862.66;5094680;28;20212;-61
2022/07/22 06:16:00;;;;;;;7.93;2.50;;;20.40;71.50;;;23.55;51.47;101866.44;5094646;28;20208;-59
2022/07/22 06:18:28;;;;;;;5.63;2.70;;;20.50;71.30;;;23.61;51.11;101864.66;5094443;28;20617;-61
2022/07/22 06:20:55;;;;;;;6.33;2.50;;;20.60;71.20;;;23.64;50.91;101866.88;5094042;28;20271;-61
2022/07/22 06:23:24;;;;;;;6.90;3.03;;;20.60;70.70;;;23.69;50.80;101867.84;5102350;28;20203;-61
2022/07/22 06:25:51;;;;;;;5.30;2.60;;;20.70;71.50;;;23.74;50.75;101876.03;5114949;28;20490;-61
2022/07/22 06:28:18;;;;;;;7.40;3.30;;;20.70;70.20;;;23.79;50.23;101870.75;5114518;28;20196;-60
2022/07/22 06:30:47;;;;;;;6.93;3.37;;;20.70;70.00;;;23.87;50.12;101875.78;5114448;28;20188;-60
2022/07/22 06:33:14;;;;;;;5.30;2.23;;;20.80;69.70;;;23.95;50.00;101883.50;5114884;28;20216;-60
2022/07/22 06:35:42;;;;;;;3.23;1.90;;;20.80;69.30;;;23.97;49.53;101876.00;5114352;28;20203;-60
2022/07/22 06:38:09;;;;;;;5.30;2.63;;;20.90;68.80;;;24.01;49.34;101876.38;5114367;28;20188;-58
2022/07/22 06:40:49;;;;;;;9.20;3.20;;;20.90;68.30;;;24.03;48.96;101880.44;5112053;28;20538;-61
2022/07/22 06:43:17;;;;;;;11.13;2.57;;;21.00;67.70;;;24.08;48.65;101885.97;5114171;28;20176;-61
2022/07/22 06:45:44;;;;;;;5.10;2.40;;;21.00;67.00;;;24.12;48.01;101884.47;5113694;28;20202;-61
2022/07/22 06:48:13;;;;;;;6.83;2.20;;;21.10;65.80;;;24.10;47.11;101891.13;5113850;28;20714;-60
2022/07/22 06:50:41;;;;;;;7.03;2.37;;;21.10;64.30;;;24.09;46.54;101887.63;5113516;28;20184;-59
2022/07/22 06:53:08;;;;;;;5.03;2.77;;;21.10;64.10;;;24.10;46.31;101886.53;5113265;28;20247;-62
2022/07/22 06:55:35;;;;;;;7.53;2.50;;;21.10;64.10;;;24.12;46.22;101884.47;5111260;28;20604;-60
2022/07/22 06:58:03;;;;;;;5.80;2.33;;;21.10;63.80;;;24.18;45.98;101886.19;5093981;28;20226;-61
2022/07/22 07:00:30;;;;;;;5.07;2.43;;;21.20;63.40;;;24.25;46.14;101896.03;5093399;28;20188;-61
2022/07/22 07:02:58;;;;;;;4.57;2.43;;;21.20;63.40;;;24.29;45.64;101895.31;5093394;28;20266;-60
2022/07/22 07:05:47;;;;;;;2.53;2.10;;;21.20;62.20;;;24.30;45.40;101896.94;5093374;28;20188;-60
2022/07/22 07:08:15;;;;;;;9.13;3.13;;;21.20;61.90;;;24.36;44.55;101897.88;5093525;28;20212;-60
2022/07/22 07:10:42;;;;;;;4.23;2.27;;;21.30;61.50;;;24.40;44.35;101899.84;5093073;28;20188;-60
2022/07/22 07:13:10;;;;;;;5.30;2.33;;;21.30;61.30;;;24.44;44.96;101898.31;5104525;28;20672;-61
2022/07/22 07:15:37;;;;;;;5.57;2.57;;;21.30;61.40;;;24.44;44.85;101892.13;5113520;28;20477;-61
2022/07/22 07:18:05;;;;;;;6.17;3.00;;;21.40;62.10;;;24.44;45.10;101892.13;5113800;28;20188;-62
2022/07/22 07:20:32;;;;;;;4.73;3.00;;;21.40;62.40;;;24.46;45.36;101890.03;5113893;28;20244;-61
2022/07/22 07:23:02;;;;;;;8.40;5.70;;;21.40;62.50;;;24.50;44.39;101894.69;5113986;28;20664;-61
2022/07/22 07:25:30;;;;;;;8.93;3.37;;;21.40;61.50;;;24.53;43.96;101896.88;5114580;28;20269;-62
2022/07/22 07:27:57;;;;;;;3.77;2.33;;;21.40;59.90;;;24.54;44.17;101886.94;5113512;28;20223;-59
2022/07/22 07:30:25;;;;;;;4.00;2.40;;;21.50;59.80;;;24.57;44.29;101887.28;5111205;28;20188;-60
2022/07/22 07:32:55;;;;;;;5.57;3.10;;;21.50;60.50;;;24.68;44.15;101893.69;5113690;28;20247;-62
2022/07/22 07:35:22;;;;;;;5.33;3.23;;;21.60;60.20;;;24.77;43.50;101892.31;5114120;28;20194;-63
2022/07/22 07:37:56;;;;;;;6.33;2.67;;;21.60;59.50;;;24.84;43.21;101882.19;5113570;28;20191;-61
2022/07/22 07:40:26;;;;;;;4.20;2.30;;;21.70;59.00;;;24.85;42.27;101891.91;5113147;28;20195;-60
2022/07/22 07:42:53;;;;;;;4.50;2.17;;;21.70;57.80;;;24.79;42.03;101884.78;5113172;28;20211;-61
2022/07/22 07:45:30;;;;;;;3.97;2.30;;;21.70;56.90;;;24.74;41.64;101892.75;5110712;28;20206;-61
2022/07/22 07:47:58;;;;;;;4.37;2.43;;;21.70;56.20;;;24.67;40.80;101895.59;5092534;28;20189;-61
2022/07/22 07:50:26;;;;;;;5.50;2.00;;;21.70;55.50;;;24.60;40.39;101899.47;5092870;28;20188;-61
2022/07/22 07:52:53;;;;;;;5.00;2.13;;;21.60;55.30;;;24.58;40.63;101898.91;5092835;28;20224;-61
2022/07/22 07:55:21;;;;;;;6.67;2.03;;;21.60;55.60;;;24.61;40.67;101893.00;5092893;28;20192;-61
2022/07/22 07:57:50;;;;;;;2.97;2.00;;;21.60;55.70;;;24.61;41.18;101893.84;5092182;28;20561;-61
2022/07/22 08:00:22;;;;;;;2.57;1.83;;;21.60;55.80;;;24.67;41.19;101894.75;5092353;28;20212;-60
2022/07/22 08:02:50;;;;;;;5.90;2.43;;;21.60;55.80;;;24.76;40.51;101899.56;5095406;28;20212;-63
2022/07/22 08:05:21;;;;;;;3.70;2.13;;;21.60;56.10;;;24.91;41.04;101903.59;5093267;28;20272;-61
2022/07/22 08:07:50;;;;;;;4.13;1.87;;;21.70;55.90;;;25.03;39.69;101907.88;5093117;28;20193;-60
2022/07/22 08:10:18;;;;;;;3.50;1.90;;;21.80;55.00;;;25.21;39.77;101902.28;5092672;28;20641;-60
2022/07/22 08:13:07;;;;;;;7.87;2.60;;;21.80;54.90;;;25.31;39.45;101907.03;5092337;28;20220;-60
2022/07/22 08:15:35;;;;;;;5.60;2.60;;;22.00;54.10;;;25.27;38.98;101912.09;5092084;28;20191;-60
2022/07/22 08:18:03;;;;;;;3.40;2.30;;;22.00;53.90;;;25.30;39.14;101903.53;5092429;28;20253;-60
2022/07/22 08:20:31;;;;;;;4.17;2.20;;;22.10;54.00;;;25.40;39.15;101919.88;5093348;28;20204;-60
2022/07/22 08:22:59;;;;;;;5.77;2.40;;;22.20;53.70;;;25.56;39.10;101912.88;5092934;28;20669;-60
2022/07/22 08:25:27;;;;;;;4.37;2.10;;;22.20;53.80;;;25.70;38.19;101914.19;5092355;28;20200;-60
2022/07/22 08:27:55;;;;;;;4.13;2.40;;;22.40;53.90;;;25.81;38.92;101913.31;5092396;28;20193;-60
2022/07/22 08:30:26;;;;;;;3.70;2.10;;;22.50;54.00;;;25.96;38.11;101907.31;5092267;28;20177;-60
2022/07/22 08:32:56;;;;;;;5.00;2.10;;;22.50;53.70;;;25.99;38.28;101917.59;5092758;28;20220;-60
2022/07/22 08:35:23;;;;;;;6.63;2.20;;;22.60;52.90;;;25.90;37.92;101913.69;5093795;28;20184;-59
2022/07/22 08:37:51;;;;;;;4.73;2.50;;;22.60;53.20;;;25.82;37.91;101916.78;5092565;28;20207;-61
2022/07/22 08:40:19;;;;;;;2.93;1.80;;;22.60;52.90;;;25.75;38.12;101916.16;5092280;28;20188;-62
2022/07/22 08:42:48;;;;;;;3.33;1.93;;;22.60;53.00;;;25.63;38.35;101910.00;5092968;28;20236;-59
2022/07/22 08:45:18;;;;;;;4.73;2.37;;;22.60;52.90;;;25.58;38.41;101907.25;5092448;28;20193;-60
2022/07/22 08:47:49;;;;;;;3.87;2.20;;;22.50;53.00;;;25.65;38.47;101910.59;5092440;28;20193;-62
2022/07/22 08:50:18;;;;;;;3.90;2.03;;;22.50;53.10;;;25.81;38.50;101907.09;5092144;28;20196;-60
2022/07/22 08:52:48;;;;;;;5.93;2.10;;;22.50;52.80;;;25.95;38.16;101900.28;5093416;28;20262;-58
2022/07/22 08:55:16;;;;;;;4.27;2.23;;;22.60;52.40;;;26.07;37.83;101906.41;5092386;28;20200;-61
2022/07/22 08:57:45;;;;;;;2.87;2.07;;;22.70;52.80;;;26.18;37.18;101903.63;5091471;28;20521;-61
2022/07/22 09:00:17;;;;;;;5.73;2.07;;;22.70;52.40;;;26.23;37.74;101908.25;5093225;28;20292;-60
2022/07/22 09:02:47;;;;;;;2.87;1.90;;;22.80;52.40;;;26.22;37.16;101906.63;5092128;28;20205;-61
2022/07/22 09:05:16;;;;;;;5.80;2.20;;;22.90;52.30;;;26.18;37.45;101908.19;5092708;28;20192;-61
2022/07/22 09:08:04;;;;;;;4.83;2.03;;;22.90;52.30;;;26.07;37.55;101909.91;5092402;28;20196;-60
2022/07/22 09:10:34;;;;;;;7.47;3.20;;;22.90;52.50;;;26.01;37.71;101910.88;5115330;28;20200;-60
2022/07/22 09:13:07;;;;;;;4.70;2.70;;;22.90;52.70;;;26.00;38.40;101911.16;5116094;27;20212;-59
2022/07/22 09:15:37;;;;;;;3.73;2.23;;;22.80;52.80;;;25.97;38.75;101906.25;5114869;28;20207;-60
2022/07/22 09:18:09;;;;;;;3.50;2.20;;;22.90;52.90;;;25.95;38.44;101911.06;5116296;28;20192;-60
2022/07/22 09:20:37;;;;;;;5.60;2.00;;;22.80;53.00;;;25.87;38.80;101925.78;5115734;28;20267;-60
2022/07/22 09:23:11;;;;;;;3.73;1.77;;;22.80;52.90;;;25.76;38.99;101925.88;5116170;28;20237;-58
2022/07/22 09:25:41;;;;;;;4.47;1.80;;;22.80;53.10;;;25.68;38.84;101931.69;5113800;28;20195;-59
2022/07/22 09:28:16;;;;;;;3.17;2.10;;;22.70;53.30;;;25.66;39.12;101928.41;5115776;28;20188;-61
2022/07/22 09:30:49;;;;;;;7.80;5.27;;;22.70;53.80;;;25.76;39.10;101923.19;5115574;28;20648;-59
2022/07/22 09:33:22;;;;;;;6.40;2.20;;;22.70;54.10;;;25.82;39.16;101930.28;5115512;28;20219;-59
2022/07/22 09:35:50;;;;;;;3.83;1.80;;;22.70;53.90;;;25.84;39.41;101930.88;5116220;28;20195;-60
2022/07/22 09:38:27;;;;;;;3.80;1.90;;;22.70;53.90;;;25.82;38.80;101928.41;5115958;28;20667;-60
2022/07/22 09:40:55;;;;;;;5.20;2.00;;;22.70;54.10;;;25.81;39.48;101931.38;5113556;28;20591;-60
2022/07/22 09:43:23;;;;;;;3.73;2.20;;;22.70;53.90;;;25.70;38.84;101930.38;5115675;27;20194;-60
2022/07/22 09:45:59;;;;;;;3.47;2.40;;;22.70;53.80;;;25.64;39.63;101935.94;5114874;28;20196;-60
2022/07/22 09:48:28;;;;;;;6.97;2.10;;;22.70;54.20;;;25.63;39.27;101934.28;5115656;28;20192;-59
2022/07/22 09:50:56;;;;;;;4.43;1.83;;;22.60;54.30;;;25.64;39.25;101942.16;5115252;28;20191;-60
2022/07/22 09:53:29;;;;;;;3.10;1.87;;;22.60;54.40;;;25.61;39.58;101939.13;5115111;28;20241;-60
2022/07/22 09:55:58;;;;;;;5.67;2.50;;;22.60;54.40;;;25.61;39.73;101941.81;5115200;28;20226;-60
2022/07/22 09:58:27;;;;;;;3.43;2.00;;;22.60;54.20;;;25.63;39.83;101939.69;5113604;28;20241;-60
2022/07/22 10:01:03;;;;;;;4.27;2.00;;;22.60;54.30;;;25.71;39.06;101942.00;5114952;28;20192;-61
2022/07/22 10:03:36;;;;;;;3.17;1.77;;;22.60;54.10;;;25.85;39.08;101932.50;5115440;28;20195;-60
2022/07/22 10:06:06;;;;;;;2.27;2.00;;;22.60;53.90;;;26.01;38.37;101937.06;5114979;28;20632;-60
2022/07/22 10:08:33;;;;;;;2.70;2.30;;;22.70;53.70;;;26.10;38.70;101935.59;5115244;28;20184;-59
2022/07/22 10:11:04;;;;;;;2.43;2.00;;;22.80;53.60;;;26.13;37.86;101937.81;5115070;28;20292;-59
2022/07/22 10:13:34;;;;;;;3.87;1.83;;;22.80;52.70;;;26.11;38.02;101926.44;5113699;28;20227;-58
2022/07/22 10:16:03;;;;;;;3.43;2.00;;;22.90;52.60;;;26.06;38.13;101935.25;5115474;28;20210;-60
2022/07/22 10:18:33;;;;;;;1.77;1.67;;;22.90;52.80;;;25.96;37.21;101928.91;5115410;27;20574;-60